FAWB/PRY METAR and TAF weather

Enter ICAO airport designator
Station Type Date Time Source
FAWB METAR 2019/10/16 14:00 UTC NOAA

FAWB 161400Z 05009G19KT CAVOK 33/04 Q1022


Station Type Date Time Source
FAWB Decoded METAR 2019/10/16 14:00 UTC NOAA

Wonderboom / Pretoria, South Africa (FAWB) 25-39S 028-13E
Oct 16, 2019 - 10:00 AM EDT / 2019.10.16 1400 UTC
Wind: from the NE (050 degrees) at 10 MPH (9 KT) gusting to 22 MPH (19 KT):0
Visibility: greater than 7 mile(s):0
Temperature: 91 F (33 C)
Dew Point: 39 F (4 C)
Relative Humidity: 16%
Pressure (altimeter): 30.18 in. Hg (1022 hPa)
ob: FAWB 161400Z 05009G19KT CAVOK 33/04 Q1022
cycle: 14

Station Type Date Time Source
FAWB TAF 2019/01/10 10:00 UTC NOAA

TAF FAWB 101000Z 1010/1018 30007KT CAVOK
BECMG 1014/1016 SCT035 PROB30
TEMPO 1016/1018 -TSRA FEW040CB TX31/1013Z TN26/1018Z

Example: see airport list